Time;durP1;ratioP1;P1;durP2;ratioP2;P2;SDS_P1;SDS_P2;PMS_P1;PMS_P2;Temp;Humidity;BMP_temperature;BMP_pressure;BME280_temperature;BME280_humidity;BME280_pressure;Samples;Min_cycle;Max_cycle;Signal;HPM_P1;HPM_P2
2023/12/09 00:01:42;;;;;;;7.15;4.82;;;;;;;23.75;35.84;99250.44;4996128;28;20500;-47
2023/12/09 00:04:07;;;;;;;6.82;4.18;;;;;;;23.76;35.90;99255.47;4993944;28;20060;-45
2023/12/09 00:06:32;;;;;;;6.55;4.38;;;;;;;23.76;35.87;99257.47;5003170;28;20087;-47
2023/12/09 00:08:58;;;;;;;7.20;4.78;;;;;;;23.74;35.83;99260.72;4989413;28;20028;-46
2023/12/09 00:11:23;;;;;;;6.50;4.25;;;;;;;23.76;35.77;99262.97;4991319;28;20034;-47
2023/12/09 00:13:48;;;;;;;6.32;4.18;;;;;;;23.74;35.78;99271.72;4993446;28;20033;-46
2023/12/09 00:16:14;;;;;;;6.68;4.35;;;;;;;23.73;35.96;99274.97;4993635;28;20390;-50
2023/12/09 00:18:39;;;;;;;6.05;3.90;;;;;;;23.75;35.80;99278.00;4990743;28;20033;-46
2023/12/09 00:21:04;;;;;;;6.82;4.30;;;;;;;23.75;35.75;99272.50;4981012;28;20033;-46
2023/12/09 00:23:30;;;;;;;6.13;4.05;;;;;;;23.71;35.83;99278.22;4987680;28;20477;-47
2023/12/09 00:25:55;;;;;;;6.00;3.70;;;;;;;23.74;35.71;99271.72;4995083;28;20424;-46
2023/12/09 00:28:20;;;;;;;6.60;4.20;;;;;;;23.73;35.82;99270.22;4994213;28;20021;-46
2023/12/09 00:30:46;;;;;;;6.65;4.00;;;;;;;23.73;35.84;99274.97;4992688;28;20034;-46
2023/12/09 00:33:12;;;;;;;6.40;4.20;;;;;;;23.73;35.80;99283.25;4991789;28;20388;-47
2023/12/09 00:35:37;;;;;;;6.32;3.85;;;;;;;23.70;35.90;99273.97;4984011;28;20045;-46
2023/12/09 00:38:02;;;;;;;6.43;3.97;;;;;;;23.73;35.75;99292.28;4988729;28;20034;-50
2023/12/09 00:40:28;;;;;;;6.57;3.88;;;;;;;23.70;35.73;99288.50;4993923;28;20026;-46
2023/12/09 00:42:53;;;;;;;5.85;3.53;;;;;;;23.72;35.77;99290.00;4989760;28;20496;-48
2023/12/09 00:45:18;;;;;;;6.15;3.67;;;;;;;23.72;35.86;99290.00;4986661;28;20022;-48
2023/12/09 00:47:44;;;;;;;5.70;3.53;;;;;;;23.70;35.80;99288.50;4981517;28;20034;-46
2023/12/09 00:50:09;;;;;;;5.60;3.50;;;;;;;23.70;35.78;99293.25;4987207;28;20035;-45
2023/12/09 00:52:35;;;;;;;5.82;3.63;;;;;;;23.73;36.03;99286.00;4993945;28;20552;-46
2023/12/09 00:55:00;;;;;;;5.97;3.65;;;;;;;23.66;35.89;99287.97;4989191;28;20018;-46
2023/12/09 00:57:25;;;;;;;5.65;3.53;;;;;;;23.69;35.85;99288.97;4987836;28;20022;-46
2023/12/09 00:59:51;;;;;;;6.60;3.70;;;;;;;23.71;35.70;99289.25;4986879;28;20101;-47
2023/12/09 01:02:17;;;;;;;5.60;3.30;;;;;;;23.70;35.75;99288.50;4987263;28;20101;-46
2023/12/09 01:04:43;;;;;;;5.55;3.35;;;;;;;23.73;35.71;99297.03;4993523;28;20072;-46
2023/12/09 01:07:08;;;;;;;5.65;3.40;;;;;;;23.71;35.76;99316.81;4994234;28;20022;-46
2023/12/09 01:09:33;;;;;;;6.00;3.40;;;;;;;23.70;35.72;99327.06;4992258;28;20482;-46
2023/12/09 01:11:59;;;;;;;5.40;3.33;;;;;;;23.70;35.74;99332.59;4987851;28;20038;-46
2023/12/09 01:14:24;;;;;;;5.47;3.20;;;;;;;23.70;35.80;99329.06;4989470;28;20091;-46
2023/12/09 01:16:49;;;;;;;5.43;3.10;;;;;;;23.67;35.75;99341.84;4989558;28;20026;-46
2023/12/09 01:19:15;;;;;;;5.10;2.80;;;;;;;23.67;35.73;99333.56;4992809;28;20038;-46
2023/12/09 01:21:40;;;;;;;5.45;3.22;;;;;;;23.70;35.71;99331.81;4993627;28;20080;-45
2023/12/09 01:24:05;;;;;;;5.45;3.03;;;;;;;23.69;35.90;99341.34;4987012;28;20504;-47
2023/12/09 01:26:31;;;;;;;5.00;2.88;;;;;;;23.70;35.68;99340.84;4988060;28;20079;-46
2023/12/09 01:28:57;;;;;;;5.20;2.90;;;;;;;23.66;35.76;99351.34;4990162;28;20031;-46
2023/12/09 01:31:22;;;;;;;5.72;3.00;;;;;;;23.67;35.71;99347.34;4996579;28;20026;-47
2023/12/09 01:33:48;;;;;;;5.00;3.03;;;;;;;23.69;35.72;99342.09;4998641;28;20041;-47
2023/12/09 01:36:13;;;;;;;4.80;2.80;;;;;;;23.69;35.65;99344.09;4986776;28;20037;-47
2023/12/09 01:38:38;;;;;;;5.22;3.10;;;;;;;23.67;35.69;99341.84;4992691;28;20041;-46
2023/12/09 01:41:04;;;;;;;5.40;2.97;;;;;;;23.67;35.72;99344.59;4989240;28;20045;-45
2023/12/09 01:43:29;;;;;;;5.53;2.92;;;;;;;23.67;35.78;99341.84;4988593;28;20041;-46
2023/12/09 01:45:58;;;;;;;5.22;2.95;;;;;;;23.67;35.47;99346.59;4990239;28;20029;-45
2023/12/09 01:48:23;;;;;;;5.18;2.97;;;;;;;23.68;35.72;99345.34;4986257;28;20146;-47
2023/12/09 01:50:48;;;;;;;5.05;2.60;;;;;;;23.66;35.60;99343.06;4987377;28;20535;-46
2023/12/09 01:53:14;;;;;;;5.28;2.60;;;;;;;23.63;35.69;99340.53;4995771;28;20018;-46
2023/12/09 01:55:39;;;;;;;4.75;2.50;;;;;;;23.64;35.79;99333.78;4980243;28;20034;-48
2023/12/09 01:58:04;;;;;;;4.55;2.33;;;;;;;23.58;35.82;99328.22;4992582;28;20401;-46
2023/12/09 02:00:30;;;;;;;4.88;2.60;;;;;;;23.60;35.72;99331.25;4991851;28;20034;-47
2023/12/09 02:02:55;;;;;;;5.20;2.67;;;;;;;23.64;35.68;99325.53;4992571;28;20034;-48
2023/12/09 02:05:20;;;;;;;4.82;2.50;;;;;;;23.66;35.36;99334.81;4993281;28;20402;-46
2023/12/09 02:07:46;;;;;;;5.05;2.70;;;;;;;23.66;35.68;99332.06;4992724;28;20030;-46
2023/12/09 02:10:11;;;;;;;5.10;2.70;;;;;;;23.65;35.69;99333.28;4993189;28;20026;-48
2023/12/09 02:13:23;;;;;;;5.13;2.50;;;;;;;23.67;35.72;99316.28;4992424;28;20164;-46
2023/12/09 02:15:58;;;;;;;4.95;2.58;;;;;;;23.66;35.73;99303.75;4995959;28;20050;-46
2023/12/09 02:18:23;;;;;;;4.85;2.65;;;;;;;23.64;35.83;99289.69;4993429;28;20109;-45
2023/12/09 02:20:49;;;;;;;4.85;2.38;;;;;;;23.64;35.71;99284.19;4980923;28;20041;-46
2023/12/09 02:23:14;;;;;;;4.60;2.38;;;;;;;23.66;35.67;99282.47;4996938;28;20019;-46
2023/12/09 02:25:40;;;;;;;4.50;2.30;;;;;;;23.66;35.63;99281.69;4992492;28;20036;-46
2023/12/09 02:28:19;;;;;;;4.68;2.50;;;;;;;23.63;35.68;99283.44;5000978;28;20065;-46
2023/12/09 02:30:46;;;;;;;4.72;2.53;;;;;;;23.63;35.64;99288.94;4993142;28;20025;-47
2023/12/09 02:33:11;;;;;;;4.70;2.40;;;;;;;23.65;35.74;99275.44;4995381;28;20513;-46
2023/12/09 02:35:38;;;;;;;4.53;2.25;;;;;;;23.64;35.63;99265.66;4985534;28;20028;-48
2023/12/09 02:38:03;;;;;;;4.80;2.30;;;;;;;23.64;35.66;99254.63;4993278;28;20030;-48
2023/12/09 02:40:28;;;;;;;4.47;2.22;;;;;;;23.62;35.67;99259.88;4978146;28;20756;-48
2023/12/09 02:42:54;;;;;;;4.47;2.10;;;;;;;23.65;35.51;99249.88;4996134;28;20030;-47
2023/12/09 02:45:19;;;;;;;4.40;2.20;;;;;;;23.61;35.65;99255.63;4974131;28;20037;-47
2023/12/09 02:47:48;;;;;;;4.28;2.20;;;;;;;23.63;35.65;99253.13;4992607;28;20661;-48
2023/12/09 02:50:13;;;;;;;4.50;2.10;;;;;;;23.64;35.75;99231.84;4991160;28;20031;-46
2023/12/09 02:52:39;;;;;;;4.88;2.50;;;;;;;23.62;35.69;99237.84;4991860;28;20030;-47
2023/12/09 02:55:05;;;;;;;4.00;2.00;;;;;;;23.62;35.81;99231.56;4991037;28;20061;-45
2023/12/09 02:57:31;;;;;;;4.22;2.10;;;;;;;23.61;35.65;99241.84;4993647;28;20029;-46
2023/12/09 02:59:56;;;;;;;4.10;2.13;;;;;;;23.64;35.64;99240.88;4993048;28;20397;-46
2023/12/09 03:02:21;;;;;;;4.28;2.03;;;;;;;23.61;35.75;99239.09;4983130;28;20026;-45
2023/12/09 03:04:47;;;;;;;3.92;2.00;;;;;;;23.64;35.63;99235.34;4989732;28;20027;-45
2023/12/09 03:07:12;;;;;;;4.10;1.80;;;;;;;23.64;35.79;99240.09;4998007;28;20032;-45
2023/12/09 03:09:37;;;;;;;4.78;2.20;;;;;;;23.63;35.73;99242.09;4992452;28;20469;-51
2023/12/09 03:12:03;;;;;;;4.13;2.08;;;;;;;23.60;35.76;99229.31;4991901;28;20486;-47
2023/12/09 03:14:29;;;;;;;4.13;1.90;;;;;;;23.62;35.69;99240.59;4990841;28;20031;-45
2023/12/09 03:16:54;;;;;;;4.00;2.00;;;;;;;23.61;35.74;99239.09;4985423;28;20036;-46
2023/12/09 03:19:19;;;;;;;4.43;2.05;;;;;;;23.64;35.61;99234.59;4985574;28;20084;-46
2023/12/09 03:21:45;;;;;;;3.80;1.77;;;;;;;23.65;35.64;99241.63;4994984;28;20049;-45
2023/12/09 03:24:10;;;;;;;3.97;2.13;;;;;;;23.60;35.65;99242.34;4992976;28;20048;-46
2023/12/09 03:26:36;;;;;;;3.83;2.03;;;;;;;23.65;35.64;99247.13;4986950;28;20478;-45
2023/12/09 03:29:01;;;;;;;3.78;1.70;;;;;;;23.63;35.68;99236.59;4991184;28;20510;-45
2023/12/09 03:31:26;;;;;;;4.03;1.95;;;;;;;23.65;35.63;99242.38;4986545;28;20027;-46
2023/12/09 03:33:52;;;;;;;4.30;2.00;;;;;;;23.64;35.66;99235.34;4992872;28;20077;-45
2023/12/09 03:36:17;;;;;;;4.65;1.85;;;;;;;23.66;35.62;99235.63;4994823;28;20072;-46
2023/12/09 03:38:43;;;;;;;4.20;2.00;;;;;;;23.65;35.59;99236.84;4993530;28;20029;-46
2023/12/09 03:41:08;;;;;;;3.53;1.85;;;;;;;23.66;35.61;99235.63;4989163;28;20030;-45
2023/12/09 03:43:33;;;;;;;3.45;1.70;;;;;;;23.64;35.68;99234.59;4988729;28;20393;-46
2023/12/09 03:45:59;;;;;;;3.42;1.60;;;;;;;23.65;35.64;99242.38;4990468;28;20412;-46
2023/12/09 03:48:27;;;;;;;3.63;1.80;;;;;;;23.67;35.56;99237.13;4994996;28;20031;-46
2023/12/09 03:50:53;;;;;;;3.70;1.88;;;;;;;23.66;35.66;99243.13;4992052;28;20103;-46
2023/12/09 03:53:18;;;;;;;3.90;1.70;;;;;;;23.61;35.70;99244.59;4986543;28;20466;-45
2023/12/09 03:56:16;;;;;;;4.15;1.70;;;;;;;23.62;35.76;99251.63;4991490;28;20065;-46
2023/12/09 03:58:41;;;;;;;3.85;1.70;;;;;;;23.63;35.70;99250.38;4984876;28;20370;-46
2023/12/09 04:01:06;;;;;;;3.80;1.80;;;;;;;23.63;35.69;99244.09;4997254;28;20056;-46
2023/12/09 04:03:32;;;;;;;3.95;1.70;;;;;;;23.63;35.73;99231.09;4990234;28;20395;-46
2023/12/09 04:05:57;;;;;;;3.65;1.70;;;;;;;23.64;35.58;99240.09;4985068;28;20018;-46
2023/12/09 04:08:22;;;;;;;4.70;2.05;;;;;;;23.62;35.68;99251.63;4991049;28;20087;-46
2023/12/09 04:10:48;;;;;;;3.70;1.73;;;;;;;23.64;35.56;99249.13;4992269;28;20030;-47
2023/12/09 04:13:13;;;;;;;3.92;1.80;;;;;;;23.63;35.54;99255.88;5008491;28;20649;-46
2023/12/09 04:15:38;;;;;;;3.42;1.60;;;;;;;23.69;35.53;99242.91;4994407;28;20278;-46
2023/12/09 04:18:04;;;;;;;3.78;1.67;;;;;;;23.68;35.48;99249.66;4993469;28;20481;-45
2023/12/09 04:20:30;;;;;;;4.63;1.90;;;;;;;23.67;35.58;99248.16;4991324;28;20027;-46
2023/12/09 04:22:55;;;;;;;3.53;1.58;;;;;;;23.68;35.66;99241.38;4993430;28;20080;-45
2023/12/09 04:25:21;;;;;;;4.10;1.80;;;;;;;23.65;35.70;99244.38;4986232;28;20023;-46
2023/12/09 04:27:46;;;;;;;3.85;1.70;;;;;;;23.67;35.59;99239.88;4990959;28;20034;-45
2023/12/09 04:30:12;;;;;;;3.40;1.50;;;;;;;23.72;35.48;99240.41;4985473;28;20022;-48
2023/12/09 04:32:37;;;;;;;3.95;1.77;;;;;;;23.65;35.60;99245.13;4987436;28;20029;-47
2023/12/09 04:35:03;;;;;;;3.55;1.70;;;;;;;23.63;35.69;99235.84;4992871;28;20096;-47
2023/12/09 04:37:28;;;;;;;3.92;1.80;;;;;;;23.66;35.64;99237.63;4992868;28;20026;-46
2023/12/09 04:39:54;;;;;;;3.90;1.70;;;;;;;23.62;35.71;99243.34;4991717;28;20388;-45
2023/12/09 04:42:19;;;;;;;3.40;1.70;;;;;;;23.59;35.82;99244.34;4988290;28;20040;-45
2023/12/09 04:44:45;;;;;;;3.45;1.60;;;;;;;23.62;35.42;99240.59;4989138;28;20023;-47
2023/12/09 04:47:10;;;;;;;3.80;1.60;;;;;;;23.61;35.64;99236.34;4993304;28;20036;-46
2023/12/09 04:49:36;;;;;;;3.88;1.60;;;;;;;23.62;35.71;99243.34;4968889;28;20034;-45
2023/12/09 04:52:01;;;;;;;5.50;1.75;;;;;;;23.62;35.67;99237.09;4990697;28;20413;-45
2023/12/09 04:54:26;;;;;;;4.90;1.60;;;;;;;23.68;35.48;99232.38;4986381;28;20037;-45
2023/12/09 04:56:52;;;;;;;5.03;1.50;;;;;;;23.66;35.60;99230.09;4986996;28;20030;-46
2023/12/09 04:59:17;;;;;;;9.57;1.60;;;;;;;23.66;35.55;99237.63;4989092;28;20030;-46
2023/12/09 05:01:42;;;;;;;3.13;1.50;;;;;;;23.64;35.68;99240.09;4991785;28;20041;-48
2023/12/09 05:04:11;;;;;;;4.10;1.80;;;;;;;23.68;35.54;99235.88;4996656;28;20030;-46
2023/12/09 05:06:36;;;;;;;3.70;1.50;;;;;;;23.63;35.64;99238.59;4992488;28;20476;-45
2023/12/09 05:09:02;;;;;;;5.07;1.50;;;;;;;23.67;35.47;99234.38;4990161;28;20026;-46
2023/12/09 05:11:28;;;;;;;3.70;1.60;;;;;;;23.66;35.56;99229.34;4986304;28;20031;-46
2023/12/09 05:13:53;;;;;;;4.43;1.45;;;;;;;23.68;35.55;99230.38;4988711;28;20026;-45
2023/12/09 05:16:18;;;;;;;3.53;1.55;;;;;;;23.68;35.52;99224.09;4981944;28;20522;-45
2023/12/09 05:18:44;;;;;;;4.32;1.60;;;;;;;23.69;35.47;99231.88;4989699;28;20080;-45
2023/12/09 05:21:12;;;;;;;4.15;1.70;;;;;;;23.65;35.54;99239.63;4985060;28;20027;-45
2023/12/09 05:23:37;;;;;;;4.13;1.60;;;;;;;23.69;35.49;99220.84;4989567;28;20545;-46
2023/12/09 05:26:02;;;;;;;3.70;1.60;;;;;;;23.68;35.52;99218.59;4993229;28;20024;-46
2023/12/09 05:28:30;;;;;;;3.88;1.63;;;;;;;23.74;35.42;99215.88;4995625;28;20492;-47
2023/12/09 05:30:55;;;;;;;5.35;1.83;;;;;;;23.76;35.45;99218.88;4993650;28;20053;-47
2023/12/09 05:33:20;;;;;;;3.40;1.50;;;;;;;23.73;35.47;99201.34;4990580;28;20053;-49
2023/12/09 05:35:46;;;;;;;4.82;1.60;;;;;;;23.73;35.54;99206.09;4991252;28;20026;-45
2023/12/09 05:38:11;;;;;;;3.72;1.45;;;;;;;23.77;35.58;99195.59;4996076;28;20030;-46
2023/12/09 05:40:36;;;;;;;3.67;1.42;;;;;;;23.82;35.61;99194.84;4995421;28;20042;-45
2023/12/09 05:43:02;;;;;;;3.92;1.73;;;;;;;23.82;35.69;99189.31;4994977;28;20101;-45
2023/12/09 05:45:27;;;;;;;4.90;1.80;;;;;;;23.83;35.83;99182.56;4991675;28;20045;-45
2023/12/09 05:47:53;;;;;;;3.05;1.25;;;;;;;23.88;35.82;99176.31;4987121;28;20056;-46
2023/12/09 05:50:19;;;;;;;5.35;1.67;;;;;;;23.85;36.00;99177.31;4993214;28;20032;-46
2023/12/09 05:52:44;;;;;;;5.35;1.90;;;;;;;23.87;36.00;99178.31;4996054;28;20768;-46
2023/12/09 05:55:09;;;;;;;5.60;1.60;;;;;;;23.91;36.29;99180.84;4990169;28;20027;-50
2023/12/09 05:57:35;;;;;;;6.85;1.85;;;;;;;24.01;36.29;99176.59;4984829;28;20138;-49
2023/12/09 06:00:00;;;;;;;11.18;1.77;;;;;;;24.01;36.66;99176.59;4990360;28;20030;-42
2023/12/09 06:02:25;;;;;;;4.97;1.58;;;;;;;23.94;36.58;99177.84;4993102;28;20030;-51
2023/12/09 06:04:51;;;;;;;4.93;1.45;;;;;;;24.08;36.53;99184.38;4997356;28;20480;-48
2023/12/09 06:07:16;;;;;;;4.13;1.52;;;;;;;24.09;36.79;99163.84;4992914;28;20019;-46
2023/12/09 06:09:42;;;;;;;3.97;1.55;;;;;;;24.08;36.72;99167.09;4988068;28;20033;-50
2023/12/09 06:12:07;;;;;;;4.60;1.35;;;;;;;24.06;36.79;99175.84;4986362;28;20518;-46
2023/12/09 06:14:32;;;;;;;4.30;1.52;;;;;;;24.04;36.74;99173.59;4990834;28;20030;-44
2023/12/09 06:16:58;;;;;;;6.97;1.40;;;;;;;24.08;36.83;99189.16;4999699;28;20025;-45
2023/12/09 06:19:23;;;;;;;3.78;1.45;;;;;;;24.18;36.71;99185.66;4992685;28;20023;-43
2023/12/09 06:21:49;;;;;;;6.03;1.67;;;;;;;24.18;36.83;99177.38;4990780;28;20093;-46
2023/12/09 06:24:14;;;;;;;4.43;1.75;;;;;;;24.19;36.84;99151.31;4989675;28;20397;-46
2023/12/09 06:26:44;;;;;;;5.30;1.40;;;;;;;24.17;36.88;99159.34;4990454;28;20029;-45
2023/12/09 06:29:12;;;;;;;6.32;1.80;;;;;;;24.21;36.87;99162.59;4993212;28;20022;-46
2023/12/09 06:31:37;;;;;;;5.45;1.67;;;;;;;24.22;36.93;99160.59;4992016;28;20101;-44
2023/12/09 06:34:03;;;;;;;9.07;1.95;;;;;;;24.24;37.04;99155.34;4990861;28;20394;-43
2023/12/09 06:36:28;;;;;;;5.88;1.60;;;;;;;24.22;37.04;99160.59;4986086;28;20037;-43
2023/12/09 06:38:54;;;;;;;3.25;1.48;;;;;;;24.17;36.99;99158.59;4988273;28;20081;-42
2023/12/09 06:41:19;;;;;;;4.20;1.70;;;;;;;24.17;36.90;99153.09;4993750;28;20054;-48
2023/12/09 06:43:44;;;;;;;3.92;1.60;;;;;;;24.14;37.06;99154.81;4991216;28;20044;-43
2023/12/09 06:46:10;;;;;;;5.03;1.50;;;;;;;24.18;36.83;99144.28;4998331;28;20068;-54
2023/12/09 06:48:37;;;;;;;4.30;1.40;;;;;;;24.17;36.63;99148.31;4992670;28;20097;-49
2023/12/09 06:51:02;;;;;;;4.18;1.40;;;;;;;24.12;36.95;99151.81;4991292;28;20022;-43
2023/12/09 06:53:27;;;;;;;5.05;1.65;;;;;;;24.16;37.02;99152.34;4995006;28;20394;-49
2023/12/09 06:55:53;;;;;;;5.65;1.67;;;;;;;24.17;36.92;99137.28;4993906;28;20026;-49
2023/12/09 06:58:18;;;;;;;3.22;1.40;;;;;;;24.17;36.94;99148.31;5001873;28;20036;-46
2023/12/09 07:00:43;;;;;;;4.20;1.42;;;;;;;24.10;37.11;99137.78;4991751;28;20029;-50
2023/12/09 07:03:09;;;;;;;3.83;1.65;;;;;;;24.05;37.12;99146.78;4992328;28;20030;-47
2023/12/09 07:05:34;;;;;;;4.45;1.60;;;;;;;24.09;36.99;99150.06;4991482;28;20434;-47
2023/12/09 07:07:59;;;;;;;3.75;1.40;;;;;;;24.15;37.02;99156.34;4990074;28;20040;-47
2023/12/09 07:10:25;;;;;;;3.45;1.50;;;;;;;24.10;37.01;99151.56;4984079;28;20026;-49
2023/12/09 07:12:50;;;;;;;4.03;1.52;;;;;;;24.15;36.70;99166.63;4983739;28;20441;-49
2023/12/09 07:15:16;;;;;;;4.25;1.45;;;;;;;24.18;36.88;99160.81;4993208;28;20030;-47
2023/12/09 07:17:41;;;;;;;4.35;1.60;;;;;;;24.11;36.94;99158.59;4993638;28;20469;-45
2023/12/09 07:20:07;;;;;;;2.95;1.50;;;;;;;24.15;36.74;99156.34;4991506;28;20052;-49
2023/12/09 07:22:32;;;;;;;4.80;1.50;;;;;;;24.16;36.75;99157.84;4993124;28;20060;-49
2023/12/09 07:24:57;;;;;;;5.28;1.52;;;;;;;24.20;36.77;99152.81;4988208;28;20022;-49
2023/12/09 07:27:23;;;;;;;3.70;1.70;;;;;;;24.19;36.80;99153.31;4990224;28;20037;-47
2023/12/09 07:29:49;;;;;;;3.25;1.30;;;;;;;24.14;36.75;99160.34;5000098;28;20023;-46
2023/12/09 07:32:14;;;;;;;3.88;1.40;;;;;;;24.10;36.97;99159.84;4995537;28;20030;-52
2023/12/09 07:34:39;;;;;;;3.35;1.30;;;;;;;24.14;36.74;99163.09;4994480;28;20037;-46
2023/12/09 07:37:05;;;;;;;6.30;1.48;;;;;;;24.10;36.69;99168.09;4989050;28;20019;-47
2023/12/09 07:39:30;;;;;;;4.47;1.50;;;;;;;24.04;36.63;99170.09;4988353;28;20014;-45
2023/12/09 07:41:56;;;;;;;3.67;1.52;;;;;;;24.02;36.47;99164.31;4988750;28;20034;-44
2023/12/09 07:44:21;;;;;;;5.43;1.52;;;;;;;24.09;36.42;99152.06;4994502;28;20503;-45
2023/12/09 07:46:46;;;;;;;12.77;2.03;;;;;;;24.16;36.43;99157.84;4993201;28;20014;-47
2023/12/09 07:49:12;;;;;;;7.93;1.90;;;;;;;23.87;35.82;99152.75;4985222;28;20136;-46
2023/12/09 07:51:37;;;;;;;8.52;1.65;;;;;;;23.94;36.34;99141.25;4986028;28;20031;-48
2023/12/09 07:54:03;;;;;;;6.55;1.73;;;;;;;23.95;36.13;99149.03;4993657;28;20097;-47
2023/12/09 07:56:28;;;;;;;4.63;1.75;;;;;;;23.90;36.15;99140.75;4989594;28;20437;-47
2023/12/09 07:58:54;;;;;;;6.50;1.60;;;;;;;23.91;36.20;99136.75;4991870;28;20046;-50
2023/12/09 08:01:19;;;;;;;6.82;1.70;;;;;;;23.89;36.13;99134.47;4974991;28;20033;-49
2023/12/09 08:03:45;;;;;;;5.05;1.50;;;;;;;23.92;36.06;99135.50;4985018;28;20429;-47
2023/12/09 08:06:11;;;;;;;5.28;1.65;;;;;;;23.92;36.03;99139.00;4993449;28;20018;-46
2023/12/09 08:08:37;;;;;;;5.13;1.70;;;;;;;23.92;36.04;99141.75;4994771;28;20014;-48
2023/12/09 08:11:03;;;;;;;4.40;1.73;;;;;;;23.94;36.01;99138.50;4990959;28;20025;-47
2023/12/09 08:13:28;;;;;;;3.15;1.42;;;;;;;23.93;36.00;99142.50;4989586;28;20022;-49
2023/12/09 08:15:54;;;;;;;3.20;1.35;;;;;;;23.93;35.97;99137.00;4987729;28;20027;-48
2023/12/09 08:18:19;;;;;;;3.40;1.50;;;;;;;23.93;36.02;99137.00;4989642;28;20564;-47
2023/12/09 08:20:44;;;;;;;4.82;1.60;;;;;;;23.93;36.02;99131.50;4991556;28;20077;-46
2023/12/09 08:23:10;;;;;;;5.53;1.60;;;;;;;23.92;36.06;99138.25;4996671;28;20456;-47
2023/12/09 08:25:35;;;;;;;3.78;1.52;;;;;;;23.88;36.15;99132.97;4995994;28;20029;-47
2023/12/09 08:28:01;;;;;;;3.97;1.50;;;;;;;23.88;36.05;99127.47;4986366;28;20025;-46
2023/12/09 08:30:26;;;;;;;2.80;1.30;;;;;;;23.89;35.96;99125.47;4989940;28;20018;-47
2023/12/09 08:32:51;;;;;;;3.92;1.42;;;;;;;23.86;35.95;99129.97;4994761;28;20049;-46
2023/12/09 08:35:17;;;;;;;5.25;1.75;;;;;;;23.88;37.07;99132.97;4994765;28;20033;-49
2023/12/09 08:37:42;;;;;;;10.93;2.35;;;;;;;23.91;37.12;99125.72;4987731;28;20545;-45
2023/12/09 08:40:12;;;;;;;10.57;1.95;;;;;;;23.91;36.87;99109.94;4986771;28;20210;-46
2023/12/09 08:42:40;;;;;;;8.15;2.15;;;;;;;23.92;36.68;99118.97;4986840;28;20041;-46
2023/12/09 08:45:10;;;;;;;9.27;1.85;;;;;;;23.88;36.57;99104.66;4994033;28;20025;-46
2023/12/09 08:47:36;;;;;;;8.27;1.60;;;;;;;23.85;36.54;99100.91;4996933;28;20019;-52
2023/12/09 08:50:03;;;;;;;4.90;1.60;;;;;;;23.85;36.55;99089.13;4989845;28;20018;-46
2023/12/09 08:52:29;;;;;;;;;;;;;;;23.88;36.38;99079.84;4987277;28;20367;-46
2023/12/09 08:54:54;;;;;;;5.85;1.60;;;;;;;23.85;36.29;99089.88;4986293;28;19921;-46
2023/12/09 08:57:19;;;;;;;4.47;1.60;;;;;;;23.87;36.38;99083.88;4987892;28;20026;-46
2023/12/09 08:59:45;;;;;;;6.85;1.63;;;;;;;23.83;36.17;99091.63;4993288;28;20045;-49
2023/12/09 09:02:10;;;;;;;4.30;1.65;;;;;;;23.83;36.05;99075.09;4991013;28;20489;-46
2023/12/09 09:04:35;;;;;;;4.78;1.55;;;;;;;23.96;35.96;99078.13;4986548;28;20048;-47
2023/12/09 09:07:01;;;;;;;9.20;1.50;;;;;;;23.64;35.88;99072.81;4985044;28;20072;-50
2023/12/09 09:09:26;;;;;;;7.20;1.88;;;;;;;23.64;35.84;99064.53;4986795;28;20395;-48
2023/12/09 09:11:52;;;;;;;8.25;1.60;;;;;;;23.64;35.87;99058.28;4990018;28;20088;-48
2023/12/09 09:14:17;;;;;;;4.72;1.60;;;;;;;23.45;35.51;99046.94;5000177;28;20022;-53
2023/12/09 09:16:42;;;;;;;6.30;1.63;;;;;;;23.34;36.12;99055.19;4988933;28;20037;-49
2023/12/09 09:19:08;;;;;;;7.30;1.80;;;;;;;23.45;36.27;99062.69;4988919;28;20038;-56
2023/12/09 09:21:33;;;;;;;3.75;1.40;;;;;;;23.51;35.62;99053.22;4994018;28;20109;-46
2023/12/09 09:23:59;;;;;;;5.22;1.55;;;;;;;23.48;35.32;99048.69;4993445;28;20026;-44
2023/12/09 09:26:24;;;;;;;4.85;1.90;;;;;;;23.43;35.39;99041.16;4991024;28;20023;-47
2023/12/09 09:28:49;;;;;;;3.95;1.60;;;;;;;23.45;35.25;99041.44;4986930;28;20391;-45
2023/12/09 09:31:15;;;;;;;4.55;1.80;;;;;;;23.50;35.60;99045.44;4989369;28;20019;-47
2023/12/09 09:33:43;;;;;;;4.07;1.60;;;;;;;23.59;35.57;99051.50;4975214;28;20034;-49
2023/12/09 09:36:09;;;;;;;5.68;1.63;;;;;;;23.56;35.50;99052.50;4993615;28;20549;-48
2023/12/09 09:38:34;;;;;;;4.70;1.50;;;;;;;23.53;35.01;99050.75;4997077;28;20116;-54
2023/12/09 09:41:02;;;;;;;52.15;17.20;;;;;;;23.45;35.53;99057.19;4988067;28;20093;-55
2023/12/09 09:43:30;;;;;;;53.75;20.40;;;;;;;23.47;35.83;99058.22;4986338;28;20393;-53
2023/12/09 09:45:56;;;;;;;38.30;15.55;;;;;;;23.52;35.92;99060.25;4994384;28;20030;-51
2023/12/09 09:48:23;;;;;;;37.58;14.23;;;;;;;23.58;35.56;99038.97;4992306;28;20026;-50
2023/12/09 09:50:51;;;;;;;;;;;;;;;23.58;35.64;99041.00;4984507;28;20420;-49
2023/12/09 09:53:22;;;;;;;31.10;10.55;;;;;;;23.62;35.78;99045.00;4986366;28;19916;-46
2023/12/09 09:55:48;;;;;;;23.65;9.77;;;;;;;23.63;35.45;99049.25;4988817;28;20034;-47
2023/12/09 09:58:16;;;;;;;23.10;9.35;;;;;;;23.64;35.49;99036.97;4990774;28;20045;-49
2023/12/09 10:00:41;;;;;;;18.20;8.10;;;;;;;23.56;35.20;99026.97;4994426;28;20034;-52
2023/12/09 10:03:06;;;;;;;17.20;6.63;;;;;;;23.48;34.98;99012.13;4992197;28;20026;-48
2023/12/09 10:05:32;;;;;;;13.20;5.88;;;;;;;23.45;34.94;99008.38;4978811;28;20018;-51
2023/12/09 10:07:57;;;;;;;11.55;5.15;;;;;;;23.45;34.97;99011.13;4981444;28;20030;-50
2023/12/09 10:10:23;;;;;;;11.45;4.50;;;;;;;23.45;34.78;99008.38;4988822;28;20474;-50
2023/12/09 10:12:48;;;;;;;9.55;4.13;;;;;;;23.47;34.90;99014.13;4994644;28;20030;-49
2023/12/09 10:15:13;;;;;;;8.88;3.88;;;;;;;23.51;35.08;99022.91;4992331;28;20037;-49
2023/12/09 10:17:39;;;;;;;10.23;3.90;;;;;;;23.52;34.88;98994.16;4988689;28;20079;-48
2023/12/09 10:20:05;;;;;;;9.05;3.80;;;;;;;23.57;34.71;98974.13;4985769;28;20029;-47
2023/12/09 10:22:31;;;;;;;9.02;3.53;;;;;;;23.56;34.92;98986.41;4990484;28;20030;-48
2023/12/09 10:24:56;;;;;;;11.55;4.65;;;;;;;23.50;35.22;98980.09;4991835;28;20018;-48
2023/12/09 10:27:22;;;;;;;38.92;30.45;;;;;;;23.44;35.46;98979.31;4994258;28;20026;-45
2023/12/09 10:29:54;;;;;;;53.58;33.10;;;;;;;23.44;35.89;98973.81;4988988;28;20085;-45
2023/12/09 10:32:20;;;;;;;30.67;21.98;;;;;;;23.43;35.71;98972.31;4971899;28;20042;-48
2023/12/09 10:34:46;;;;;;;31.13;19.55;;;;;;;23.49;35.74;98970.31;4992621;28;20057;-47
2023/12/09 10:37:12;;;;;;;27.73;18.48;;;;;;;23.57;35.63;98960.34;4993508;28;20022;-48
2023/12/09 10:39:42;;;;;;;21.65;17.13;;;;;;;23.57;35.50;98946.59;4993857;28;20018;-48
2023/12/09 10:42:08;;;;;;;33.58;23.02;;;;;;;23.60;35.96;98942.06;4988115;28;20050;-48
2023/12/09 10:44:34;;;;;;;33.70;22.60;;;;;;;23.63;36.07;98939.06;4986991;28;20033;-52
2023/12/09 10:46:59;;;;;;;32.03;22.58;;;;;;;23.61;36.21;98930.53;4990784;28;20402;-48
2023/12/09 10:49:24;;;;;;;28.63;19.70;;;;;;;23.62;36.26;98915.50;4997790;28;20030;-50
2023/12/09 10:51:50;;;;;;;29.67;19.77;;;;;;;23.58;36.05;98906.75;4994876;28;20665;-49
2023/12/09 10:54:15;;;;;;;23.75;15.80;;;;;;;23.59;35.96;98901.97;4988378;28;20022;-49
2023/12/09 10:56:40;;;;;;;21.45;13.27;;;;;;;23.59;35.75;98886.19;4986210;28;20026;-49
2023/12/09 10:59:06;;;;;;;18.55;11.63;;;;;;;23.61;35.55;98875.44;4990914;28;20682;-51
2023/12/09 11:01:31;;;;;;;19.58;10.70;;;;;;;23.59;35.58;98858.66;4994211;28;20168;-50
2023/12/09 11:03:57;;;;;;;16.55;9.68;;;;;;;23.64;35.57;98844.13;4995292;28;20030;-50
2023/12/09 11:06:23;;;;;;;15.55;9.02;;;;;;;23.60;35.44;98843.63;4994807;28;20014;-52
2023/12/09 11:08:48;;;;;;;18.48;8.50;;;;;;;23.59;35.51;98828.34;5004200;28;20048;-49
2023/12/09 11:11:14;;;;;;;14.27;7.85;;;;;;;23.65;35.43;98820.09;4989521;28;20098;-51
2023/12/09 11:13:44;;;;;;;13.55;7.05;;;;;;;23.69;35.87;98804.81;4296631;28;10000423;-48
2023/12/09 11:16:18;;;;;;;12.20;6.88;;;;;;;23.72;35.65;98797.53;4984330;28;20474;-48
2023/12/09 11:18:51;;;;;;;12.20;6.68;;;;;;;23.81;35.66;98785.47;4986860;28;20069;-46
2023/12/09 11:21:17;;;;;;;10.65;6.47;;;;;;;24.26;35.03;98781.31;4986398;28;20127;-46
2023/12/09 11:23:53;;;;;;;12.00;6.43;;;;;;;24.65;34.34;98766.53;4970092;28;20378;-49
2023/12/09 11:26:26;;;;;;;10.15;5.50;;;;;;;24.74;34.24;98755.19;4987784;28;20014;-53